Time;durP1;ratioP1;P1;durP2;ratioP2;P2;SDS_P1;SDS_P2;PMS_P1;PMS_P2;Temp;Humidity;BMP_temperature;BMP_pressure;BME280_temperature;BME280_humidity;BME280_pressure;Samples;Min_cycle;Max_cycle;Signal;HPM_P1;HPM_P2
2023/10/03 00:00:35;;;;;;;27.83;16.23;;;;;;;16.18;57.89;101175.50;4967470;28;20042;-70
2023/10/03 00:03:08;;;;;;;33.72;15.48;;;;;;;16.18;57.67;101173.69;4980841;28;20520;-70
2023/10/03 00:05:35;;;;;;;30.80;15.10;;;;;;;16.10;57.58;101164.53;4980527;28;20034;-70
2023/10/03 00:08:05;;;;;;;29.58;16.35;;;;;;;16.00;57.95;101159.81;4980835;28;20037;-70
2023/10/03 00:10:38;;;;;;;32.20;16.48;;;;;;;15.96;58.34;101149.50;4977862;28;20042;-70
2023/10/03 00:13:07;;;;;;;29.67;16.52;;;;;;;15.89;58.56;101141.09;4980763;28;20038;-70
2023/10/03 00:15:43;;;;;;;30.27;16.80;;;;;;;15.87;58.49;101136.88;4994422;28;20076;-70
2023/10/03 00:18:12;;;;;;;35.03;16.67;;;;;;;15.83;58.74;101130.91;4977507;28;20640;-70
2023/10/03 00:20:38;;;;;;;34.67;17.95;;;;;;;15.69;58.84;101118.53;4975331;28;20185;-70
2023/10/03 00:23:08;;;;;;;35.10;16.00;;;;;;;15.70;59.02;101108.84;4981812;28;21051;-68
2023/10/03 00:25:35;;;;;;;37.13;18.20;;;;;;;15.62;59.32;101103.16;4960740;28;20500;-68
2023/10/03 00:28:06;;;;;;;35.25;17.40;;;;;;;15.61;59.16;101104.13;4962504;28;20065;-69
2023/10/03 00:30:35;;;;;;;34.03;16.73;;;;;;;15.65;58.69;101101.22;4958656;28;20569;-68
2023/10/03 00:33:10;;;;;;;33.38;17.30;;;;;;;15.51;59.19;101088.84;4960565;28;20018;-67
2023/10/03 00:35:40;;;;;;;35.05;18.00;;;;;;;15.66;58.67;101081.84;4957689;28;20050;-69
2023/10/03 00:38:14;;;;;;;34.65;16.60;;;;;;;15.64;58.91;101082.84;4957969;28;20386;-70
2023/10/03 00:40:43;;;;;;;35.83;17.08;;;;;;;15.54;59.04;101074.63;4970066;28;20085;-69
2023/10/03 00:43:12;;;;;;;32.08;16.27;;;;;;;15.61;59.24;101075.13;4980588;28;20037;-69
2023/10/03 00:45:37;;;;;;;36.35;17.08;;;;;;;15.59;58.94;101070.81;4973971;28;20396;-67
2023/10/03 00:48:08;;;;;;;32.67;15.88;;;;;;;15.64;58.92;101061.78;4975868;28;20061;-67
2023/10/03 00:50:34;;;;;;;37.38;18.10;;;;;;;15.59;58.90;101057.66;4960784;28;20504;-70
2023/10/03 00:53:10;;;;;;;31.92;17.00;;;;;;;15.64;58.59;101051.22;4967543;28;20027;-69
2023/10/03 00:55:43;;;;;;;35.40;18.25;;;;;;;15.60;58.82;101045.31;4974331;28;20437;-69
2023/10/03 01:00:43;;;;;;;33.10;16.58;;;;;;;15.55;59.05;101032.41;4987929;28;20098;-69
2023/10/03 01:03:31;;;;;;;38.88;17.98;;;;;;;15.56;58.96;101017.44;4977362;28;20038;-69
2023/10/03 01:06:00;;;;;;;32.50;17.90;;;;;;;15.53;58.66;101012.38;4977758;28;20042;-70
2023/10/03 01:08:29;;;;;;;36.63;18.42;;;;;;;15.48;59.17;101003.88;4969041;28;20110;-68
2023/10/03 01:11:00;;;;;;;36.25;17.17;;;;;;;15.51;59.09;100998.44;4991278;28;20030;-68
2023/10/03 01:13:27;;;;;;;39.72;17.45;;;;;;;15.51;59.03;100994.00;4968573;28;20488;-68
2023/10/03 01:15:57;;;;;;;;;;;;;;;15.50;59.12;100980.91;4964254;28;20261;-68
2023/10/03 01:18:26;;;;;;;36.17;17.05;;;;;;;15.45;59.11;100972.44;4954405;28;19922;-70
2023/10/03 01:20:55;;;;;;;33.88;15.48;;;;;;;15.41;58.96;100960.41;4959881;28;20125;-67
2023/10/03 01:23:31;;;;;;;37.40;17.83;;;;;;;15.30;59.23;100953.13;4959067;28;20035;-70
2023/10/03 01:25:56;;;;;;;38.33;18.45;;;;;;;15.24;59.48;100942.94;4978462;28;20198;-67
2023/10/03 01:28:22;;;;;;;48.20;19.45;;;;;;;15.13;59.91;100931.25;4978273;28;20148;-66
2023/10/03 01:30:51;;;;;;;39.78;19.55;;;;;;;15.16;59.90;100920.53;4977435;28;20050;-70
2023/10/03 01:33:26;;;;;;;41.95;19.27;;;;;;;15.15;59.68;100908.31;4974328;28;20088;-67
2023/10/03 01:35:54;;;;;;;38.15;17.48;;;;;;;15.17;59.53;100895.06;4959703;28;20425;-70
2023/10/03 01:38:26;;;;;;;35.67;18.20;;;;;;;15.18;59.32;100884.44;4956990;28;20034;-68
2023/10/03 01:40:57;;;;;;;36.78;19.02;;;;;;;15.12;59.67;100873.41;4980468;28;20061;-68
2023/10/03 01:43:22;;;;;;;35.22;18.15;;;;;;;15.08;59.69;100854.34;4966427;28;20034;-68
2023/10/03 01:45:49;;;;;;;40.40;19.02;;;;;;;15.07;59.49;100826.31;4980811;28;20098;-68
2023/10/03 01:48:17;;;;;;;38.78;18.20;;;;;;;15.01;59.72;100815.28;4983804;28;20156;-68
2023/10/03 01:50:45;;;;;;;44.25;20.15;;;;;;;14.89;60.09;100804.56;4970374;28;20042;-68
2023/10/03 01:53:11;;;;;;;41.65;18.73;;;;;;;14.94;60.11;100791.13;4977920;28;20582;-68
2023/10/03 01:55:38;;;;;;;45.72;19.95;;;;;;;14.85;60.11;100773.25;4991960;28;20370;-68
2023/10/03 01:58:05;;;;;;;40.47;19.65;;;;;;;14.95;60.05;100769.16;4983438;28;20037;-68
2023/10/03 02:00:31;;;;;;;45.53;20.05;;;;;;;15.00;59.94;100776.78;4977318;28;20049;-69
2023/10/03 02:03:22;;;;;;;39.95;19.70;;;;;;;14.92;59.93;100774.59;4982494;28;20107;-68
2023/10/03 02:05:48;;;;;;;47.60;19.42;;;;;;;15.11;59.59;100780.44;4979051;28;20045;-69
2023/10/03 02:08:16;;;;;;;38.53;18.60;;;;;;;14.99;59.66;100770.63;4979848;28;20041;-66
2023/10/03 02:10:47;;;;;;;35.35;17.38;;;;;;;15.11;59.25;100769.91;4964762;28;20105;-71
2023/10/03 02:13:14;;;;;;;38.33;17.65;;;;;;;15.24;58.36;100763.91;4975856;28;20065;-69
2023/10/03 02:15:44;;;;;;;39.47;17.27;;;;;;;15.29;58.51;100767.97;4970005;28;20128;-68
2023/10/03 02:18:14;;;;;;;39.28;18.17;;;;;;;15.34;57.96;100754.50;4982545;28;20033;-68
2023/10/03 02:20:52;;;;;;;32.50;15.18;;;;;;;15.33;57.84;100758.09;4975767;28;20042;-69
2023/10/03 02:23:23;;;;;;;35.22;16.02;;;;;;;15.39;57.70;100749.78;4974761;28;20038;-69
2023/10/03 02:25:55;;;;;;;36.35;15.20;;;;;;;15.32;57.78;100740.59;4965062;28;20481;-70
2023/10/03 02:28:22;;;;;;;34.50;16.75;;;;;;;15.18;58.27;100736.16;4962176;28;20056;-69
2023/10/03 02:30:51;;;;;;;37.35;14.82;;;;;;;15.30;57.67;100724.88;4983903;28;20050;-69
2023/10/03 02:33:17;;;;;;;31.48;15.07;;;;;;;15.31;57.44;100717.84;4981566;28;20423;-69
2023/10/03 02:35:47;;;;;;;30.27;14.65;;;;;;;15.28;57.84;100710.13;4968964;28;20057;-69
2023/10/03 02:38:20;;;;;;;33.08;16.13;;;;;;;15.25;57.70;100702.44;4950502;28;20035;-69
2023/10/03 02:40:49;;;;;;;32.05;15.43;;;;;;;15.12;57.82;100692.63;4966695;28;20042;-69
2023/10/03 02:43:15;;;;;;;27.30;15.00;;;;;;;15.05;58.11;100686.03;4956547;28;20805;-69
2023/10/03 02:45:45;;;;;;;31.88;14.32;;;;;;;15.11;57.97;100677.78;4956617;28;20034;-69
2023/10/03 02:48:15;;;;;;;31.55;14.23;;;;;;;15.22;57.64;100663.16;4959546;28;20668;-68
2023/10/03 02:50:46;;;;;;;33.88;13.65;;;;;;;15.15;57.54;100645.06;4961198;28;20047;-67
2023/10/03 02:53:19;;;;;;;33.40;14.02;;;;;;;15.13;57.54;100628.50;4958747;28;20125;-68
2023/10/03 02:55:46;;;;;;;31.92;13.45;;;;;;;15.02;57.93;100617.81;4973633;28;20116;-69
2023/10/03 02:58:22;;;;;;;23.50;12.10;;;;;;;15.09;57.69;100605.97;4990259;28;20169;-68
2023/10/03 03:00:54;;;;;;;24.33;11.70;;;;;;;15.09;57.56;100599.84;4985173;28;20045;-68
2023/10/03 03:03:29;;;;;;;26.00;12.15;;;;;;;15.09;57.12;100579.63;4997053;28;20026;-68
2023/10/03 03:05:57;;;;;;;29.05;11.70;;;;;;;14.76;58.52;100565.03;4951880;28;20078;-71
2023/10/03 03:08:31;;;;;;;24.33;10.82;;;;;;;14.83;58.34;100551.50;4956604;28;20034;-72
2023/10/03 03:10:59;;;;;;;26.67;11.52;;;;;;;15.03;57.56;100542.34;4967144;28;20034;-71
2023/10/03 03:13:32;;;;;;;21.30;10.18;;;;;;;15.09;57.07;100528.78;4956887;28;22339;-69
2023/10/03 03:16:05;;;;;;;25.70;11.30;;;;;;;15.04;57.19;100526.47;4990179;28;20050;-72
2023/10/03 03:18:40;;;;;;;29.05;11.15;;;;;;;14.96;57.37;100515.56;4970466;28;20034;-70
2023/10/03 03:21:08;;;;;;;25.08;10.82;;;;;;;15.08;56.70;100506.91;4984154;28;20064;-70
2023/10/03 03:23:38;;;;;;;19.38;9.85;;;;;;;15.20;56.80;100514.94;4987263;28;21636;-70
2023/10/03 03:26:17;;;;;;;22.15;10.90;;;;;;;15.19;56.67;100514.06;4983365;28;20626;-69
2023/10/03 03:28:44;;;;;;;22.58;9.80;;;;;;;15.21;56.20;100500.81;4984706;28;20050;-70
2023/10/03 03:31:21;;;;;;;19.75;9.35;;;;;;;15.31;55.93;100491.41;4980537;28;20048;-72
2023/10/03 03:33:51;;;;;;;20.95;9.20;;;;;;;15.14;56.46;100495.94;4984726;28;20636;-70
2023/10/03 03:36:21;;;;;;;23.70;10.93;;;;;;;15.18;56.22;100486.91;4977632;28;20030;-70
2023/10/03 03:38:51;;;;;;;23.95;10.55;;;;;;;15.29;55.67;100485.41;4979421;28;20042;-70
2023/10/03 03:41:17;;;;;;;21.70;10.50;;;;;;;15.45;55.18;100478.16;4962944;28;20061;-71
2023/10/03 03:43:44;;;;;;;24.08;10.43;;;;;;;15.45;55.06;100493.97;4960834;28;20535;-72
2023/10/03 03:46:12;;;;;;;25.95;9.77;;;;;;;15.46;54.84;100495.66;4960736;28;20387;-70
2023/10/03 03:48:38;;;;;;;26.30;10.35;;;;;;;15.31;55.58;100496.69;4974870;28;20041;-72
2023/10/03 03:51:14;;;;;;;25.85;9.88;;;;;;;15.42;54.79;100493.34;4961003;28;20043;-72
2023/10/03 03:53:45;;;;;;;26.17;9.85;;;;;;;15.46;54.94;100502.69;4934547;28;20568;-71
2023/10/03 03:56:17;;;;;;;21.05;8.93;;;;;;;15.53;54.64;100493.47;4963361;28;20154;-71
2023/10/03 03:58:45;;;;;;;18.15;8.57;;;;;;;15.49;54.73;100484.91;4957565;28;20054;-71
2023/10/03 04:01:14;;;;;;;23.70;9.38;;;;;;;15.42;54.86;100467.00;4962573;28;20707;-70
2023/10/03 04:03:43;;;;;;;25.75;10.13;;;;;;;15.42;54.72;100456.47;4949915;28;20047;-71
2023/10/03 04:06:14;;;;;;;24.48;10.13;;;;;;;15.50;54.14;100460.25;4960619;28;20041;-71
2023/10/03 04:08:40;;;;;;;20.95;9.10;;;;;;;15.49;54.47;100471.75;4944611;28;20156;-70
2023/10/03 04:11:09;;;;;;;23.60;9.07;;;;;;;15.57;54.14;100479.13;4962110;28;20576;-69
2023/10/03 04:13:50;;;;;;;25.50;11.63;;;;;;;15.49;54.16;100466.47;4956838;28;20133;-69
2023/10/03 04:16:21;;;;;;;23.65;10.05;;;;;;;15.51;54.33;100469.00;4992460;28;20059;-69
2023/10/03 04:18:50;;;;;;;32.65;11.45;;;;;;;15.37;54.51;100454.13;4976826;28;20038;-70
2023/10/03 04:21:16;;;;;;;26.55;10.52;;;;;;;15.63;53.73;100459.44;4961585;28;20159;-69
2023/10/03 04:23:44;;;;;;;22.15;9.55;;;;;;;15.78;53.54;100461.88;4934910;28;20464;-67
2023/10/03 04:26:12;;;;;;;23.73;9.85;;;;;;;15.62;53.67;100457.72;4952686;28;20038;-68
2023/10/03 04:28:38;;;;;;;22.38;8.88;;;;;;;15.77;53.35;100457.56;4959618;28;20071;-66
2023/10/03 04:31:07;;;;;;;28.63;10.50;;;;;;;15.89;53.08;100444.47;4961079;28;20530;-67
2023/10/03 04:33:33;;;;;;;20.85;8.90;;;;;;;15.65;53.60;100425.94;4951615;28;20049;-65
2023/10/03 04:36:04;;;;;;;25.85;9.75;;;;;;;16.02;52.27;100440.06;4960122;28;20030;-68
2023/10/03 04:38:35;;;;;;;21.90;8.95;;;;;;;15.62;53.10;100418.22;4961158;28;20031;-68
2023/10/03 04:41:00;;;;;;;26.08;10.02;;;;;;;15.59;53.58;100412.25;4961452;28;20042;-66
2023/10/03 04:43:29;;;;;;;23.73;8.88;;;;;;;15.58;53.59;100417.59;4956892;28;20042;-68
2023/10/03 04:45:56;;;;;;;24.17;10.32;;;;;;;15.65;53.60;100416.22;4965280;28;20026;-72
2023/10/03 04:48:23;;;;;;;22.88;9.65;;;;;;;15.88;52.73;100400.59;4956212;28;20037;-70
2023/10/03 04:50:50;;;;;;;22.40;9.18;;;;;;;15.88;52.95;100390.91;4987316;28;20025;-70
2023/10/03 04:53:16;;;;;;;28.95;9.30;;;;;;;15.18;54.90;100381.59;4978625;28;20036;-68
2023/10/03 04:55:45;;;;;;;25.15;9.35;;;;;;;15.64;53.38;100380.31;4962449;28;20034;-69
2023/10/03 04:58:12;;;;;;;23.92;8.60;;;;;;;15.74;52.96;100380.50;4964962;28;20039;-69
2023/10/03 05:00:39;;;;;;;25.42;8.88;;;;;;;15.93;52.60;100377.41;4958320;28;20492;-71
2023/10/03 05:03:04;;;;;;;28.92;9.48;;;;;;;15.33;53.98;100378.94;4961531;28;20057;-69
2023/10/03 05:05:32;;;;;;;24.23;9.45;;;;;;;15.77;53.22;100367.97;4973353;28;20054;-68
2023/10/03 05:07:58;;;;;;;28.02;9.02;;;;;;;15.89;52.86;100386.50;4967999;28;20045;-69
2023/10/03 05:10:30;;;;;;;29.33;10.18;;;;;;;15.90;52.75;100375.00;4976525;28;20042;-69
2023/10/03 05:12:57;;;;;;;21.65;10.23;;;;;;;15.33;54.57;100381.56;4989018;28;20567;-71
2023/10/03 05:15:26;;;;;;;24.17;9.27;;;;;;;15.57;53.59;100357.94;4960157;28;20204;-70
2023/10/03 05:17:52;;;;;;;22.80;9.13;;;;;;;15.67;53.58;100372.19;4961117;28;20069;-70
2023/10/03 05:20:18;;;;;;;25.67;9.15;;;;;;;15.51;54.05;100361.03;4965870;28;20054;-70
2023/10/03 05:22:47;;;;;;;22.95;8.75;;;;;;;15.68;53.92;100373.03;4965843;28;21407;-66
2023/10/03 05:25:19;;;;;;;23.40;9.70;;;;;;;15.98;53.08;100368.25;4945927;28;20088;-69
2023/10/03 05:27:48;;;;;;;23.05;9.75;;;;;;;15.74;53.15;100356.78;4957104;28;20069;-69
2023/10/03 05:30:15;;;;;;;23.13;8.85;;;;;;;15.96;52.85;100362.22;4958211;28;20034;-68
2023/10/03 05:32:45;;;;;;;23.25;9.05;;;;;;;15.95;53.03;100363.19;4960622;28;20076;-70
2023/10/03 05:35:13;;;;;;;28.55;10.65;;;;;;;15.59;53.76;100358.69;4957922;28;20042;-68
2023/10/03 05:37:41;;;;;;;23.67;10.18;;;;;;;15.93;53.04;100348.41;4958998;28;20035;-70
2023/10/03 05:40:19;;;;;;;22.95;9.38;;;;;;;15.95;52.98;100351.78;4950480;28;20214;-70
2023/10/03 05:42:47;;;;;;;23.52;10.68;;;;;;;15.82;53.32;100358.88;4952520;28;21326;-69
2023/10/03 05:45:15;;;;;;;26.63;10.32;;;;;;;15.83;53.78;100360.56;4955856;28;20081;-70
2023/10/03 05:47:46;;;;;;;27.15;11.52;;;;;;;15.71;54.05;100367.56;4957371;28;20069;-69
2023/10/03 05:50:14;;;;;;;24.73;9.50;;;;;;;15.67;54.31;100366.06;4951137;28;20127;-70
2023/10/03 05:52:40;;;;;;;26.48;10.27;;;;;;;15.22;55.35;100363.03;4957184;28;20030;-67
2023/10/03 05:55:07;;;;;;;24.48;10.45;;;;;;;15.28;55.35;100358.19;4958435;28;20042;-66
2023/10/03 05:57:33;;;;;;;25.50;9.20;;;;;;;15.46;54.80;100374.53;4958186;28;20138;-66
2023/10/03 06:00:00;;;;;;;27.35;9.38;;;;;;;15.71;54.68;100368.38;4960619;28;20165;-67
2023/10/03 06:02:28;;;;;;;33.85;11.40;;;;;;;15.97;53.98;100374.47;4961060;28;20039;-68
2023/10/03 06:04:58;;;;;;;22.90;9.68;;;;;;;15.51;55.23;100379.47;4954730;28;20039;-68
2023/10/03 06:07:29;;;;;;;25.02;10.40;;;;;;;15.94;54.29;100377.31;4950839;28;20035;-65
2023/10/03 06:10:04;;;;;;;23.80;10.00;;;;;;;15.50;55.72;100389.13;4944298;28;20073;-65
2023/10/03 06:12:32;;;;;;;20.88;9.20;;;;;;;15.89;54.82;100375.97;4954069;28;20089;-68
2023/10/03 06:15:01;;;;;;;24.48;9.43;;;;;;;15.90;54.87;100373.19;4941740;28;20049;-68
2023/10/03 06:17:27;;;;;;;23.67;9.18;;;;;;;15.88;54.83;100369.81;4956720;28;20400;-66
2023/10/03 06:19:53;;;;;;;26.92;10.55;;;;;;;15.64;55.32;100364.50;4956122;28;20042;-67
2023/10/03 06:22:18;;;;;;;28.95;10.55;;;;;;;15.88;54.99;100372.47;4957188;28;20037;-66
2023/10/03 06:24:45;;;;;;;26.67;8.93;;;;;;;15.92;55.09;100358.13;4948146;28;20503;-67
2023/10/03 06:27:11;;;;;;;29.92;11.75;;;;;;;15.36;56.53;100368.19;4960516;28;20093;-66
2023/10/03 06:29:39;;;;;;;24.60;9.48;;;;;;;16.11;54.66;100359.50;4951733;28;20053;-68
2023/10/03 06:32:05;;;;;;;25.08;10.20;;;;;;;15.46;56.39;100353.44;4966884;28;20115;-67
2023/10/03 06:34:30;;;;;;;28.20;9.75;;;;;;;15.64;56.14;100363.63;4951413;28;20137;-67
2023/10/03 06:36:56;;;;;;;29.42;8.23;;;;;;;16.17;54.47;100369.59;4960292;28;20038;-66
2023/10/03 06:39:24;;;;;;;31.15;9.05;;;;;;;16.08;54.94;100379.00;4966748;28;20041;-67
2023/10/03 06:41:50;;;;;;;27.85;9.68;;;;;;;16.09;54.94;100383.31;4975385;28;20042;-67
2023/10/03 06:44:17;;;;;;;23.88;9.27;;;;;;;15.96;55.25;100383.31;4976466;28;20073;-67
2023/10/03 06:46:43;;;;;;;29.08;9.32;;;;;;;15.61;56.56;100403.38;4953959;28;20074;-67
2023/10/03 06:49:10;;;;;;;25.95;9.68;;;;;;;15.65;56.63;100394.31;4958354;28;20052;-67
2023/10/03 06:51:36;;;;;;;22.48;9.77;;;;;;;15.81;56.28;100408.09;4960339;28;20820;-67
2023/10/03 06:54:03;;;;;;;27.20;9.50;;;;;;;15.05;57.95;100393.06;4964525;28;20034;-65
2023/10/03 06:56:32;;;;;;;27.00;9.63;;;;;;;15.93;56.11;100398.47;4980163;28;20136;-65
2023/10/03 06:58:59;;;;;;;26.67;9.07;;;;;;;16.12;55.42;100398.06;4980093;28;20432;-68
2023/10/03 07:01:25;;;;;;;23.48;8.65;;;;;;;15.52;57.08;100403.03;4978716;28;20038;-64
2023/10/03 07:03:53;;;;;;;19.52;8.15;;;;;;;15.78;56.83;100396.00;4953468;28;20998;-66
2023/10/03 07:06:19;;;;;;;22.30;7.75;;;;;;;16.36;55.14;100391.03;4989741;28;20030;-65
2023/10/03 07:08:45;;;;;;;28.40;10.13;;;;;;;15.87;56.25;100389.25;4969679;28;20045;-66
2023/10/03 07:11:12;;;;;;;22.52;8.90;;;;;;;16.14;55.82;100381.19;4977241;28;20113;-65
2023/10/03 07:13:39;;;;;;;27.55;10.07;;;;;;;15.21;58.33;100387.63;4972725;28;20515;-66
2023/10/03 07:16:05;;;;;;;29.48;9.43;;;;;;;15.46;58.19;100387.69;4976977;28;20049;-65
2023/10/03 07:18:31;;;;;;;24.77;8.88;;;;;;;16.38;55.78;100394.41;4978144;28;20034;-66
2023/10/03 07:20:57;;;;;;;28.33;9.02;;;;;;;16.09;56.36;100395.66;4977681;28;20037;-65
2023/10/03 07:24:12;;;;;;;26.70;9.57;;;;;;;16.17;56.38;100391.50;4984511;28;20452;-67
2023/10/03 07:26:38;;;;;;;30.25;9.48;;;;;;;16.19;56.36;100399.31;4983499;28;20295;-67
2023/10/03 07:29:06;;;;;;;28.02;8.95;;;;;;;16.35;56.01;100389.38;4989012;28;20050;-63
2023/10/03 07:31:32;;;;;;;23.38;9.23;;;;;;;16.37;56.09;100408.53;4977944;28;20038;-68
2023/10/03 07:33:58;;;;;;;24.40;8.48;;;;;;;15.89;57.84;100405.78;4966333;28;20129;-69
2023/10/03 07:36:25;;;;;;;22.83;8.82;;;;;;;15.79;57.64;100396.81;4984303;28;20563;-68
2023/10/03 07:38:51;;;;;;;25.55;9.68;;;;;;;15.62;58.55;100416.44;4974097;28;20203;-67
2023/10/03 07:41:18;;;;;;;26.67;8.63;;;;;;;16.33;56.43;100412.38;4979519;28;20474;-69
2023/10/03 07:43:47;;;;;;;24.00;9.38;;;;;;;16.45;56.19;100412.44;4974955;28;20049;-69
2023/10/03 07:46:25;;;;;;;19.55;8.38;;;;;;;16.19;57.04;100399.31;4983003;28;20033;-69
2023/10/03 07:48:52;;;;;;;21.27;8.80;;;;;;;16.38;56.90;100414.69;4974762;28;20151;-69
2023/10/03 07:51:20;;;;;;;18.65;8.90;;;;;;;16.31;57.00;100414.28;4976797;28;20034;-69
2023/10/03 07:53:47;;;;;;;22.63;8.65;;;;;;;16.36;56.30;100414.78;4974925;28;20213;-67
2023/10/03 07:56:29;;;;;;;20.02;7.22;;;;;;;16.27;57.36;100422.53;4979301;28;20034;-67
2023/10/03 07:58:56;;;;;;;24.08;8.25;;;;;;;15.83;58.84;100423.81;4977188;28;20729;-69
2023/10/03 08:01:26;;;;;;;24.60;8.77;;;;;;;15.32;60.76;100440.44;4984922;28;20495;-69
2023/10/03 08:03:55;;;;;;;22.80;7.78;;;;;;;15.48;59.99;100430.56;4972087;28;20045;-66
2023/10/03 08:06:24;;;;;;;17.38;7.78;;;;;;;15.68;59.80;100457.31;4976317;28;20065;-68
2023/10/03 08:08:59;;;;;;;20.25;6.40;;;;;;;15.68;59.54;100454.69;4968253;28;20121;-68
2023/10/03 08:11:28;;;;;;;19.75;7.57;;;;;;;15.75;59.26;100458.56;4979431;28;20390;-68
2023/10/03 08:13:58;;;;;;;27.27;7.05;;;;;;;15.53;60.04;100451.31;4972498;28;20060;-67
2023/10/03 08:16:25;;;;;;;24.48;6.70;;;;;;;15.32;60.90;100466.75;4979727;28;20185;-69
2023/10/03 08:18:58;;;;;;;18.45;6.45;;;;;;;15.52;60.40;100474.16;4977554;28;20080;-67
2023/10/03 08:21:27;;;;;;;11.80;5.57;;;;;;;15.41;60.75;100481.09;4976390;28;20497;-67
2023/10/03 08:23:54;;;;;;;14.68;6.03;;;;;;;14.98;62.41;100476.84;4985837;28;20104;-67
2023/10/03 08:26:21;;;;;;;15.85;7.57;;;;;;;14.84;63.60;100492.69;4991349;28;20030;-66
2023/10/03 08:28:59;;;;;;;20.20;6.90;;;;;;;15.05;62.49;100496.53;4971522;28;20730;-67
2023/10/03 08:31:28;;;;;;;14.65;6.18;;;;;;;14.94;62.11;100496.41;4976435;28;20503;-67
2023/10/03 08:33:55;;;;;;;11.52;5.93;;;;;;;15.25;60.95;100512.88;4967365;28;20072;-67
2023/10/03 08:36:28;;;;;;;18.58;5.93;;;;;;;15.04;61.16;100513.28;4978889;28;20030;-67
2023/10/03 08:39:13;;;;;;;15.73;3.92;;;;;;;15.24;60.50;100517.31;4971402;28;20633;-66
2023/10/03 08:41:59;;;;;;;11.73;3.90;;;;;;;14.49;61.32;100536.03;4977225;28;20288;-67
2023/10/03 08:44:31;;;;;;;14.18;3.25;;;;;;;14.81;60.31;100545.47;4976495;28;20045;-67
2023/10/03 08:47:07;;;;;;;15.30;3.50;;;;;;;14.76;60.19;100559.75;4976047;28;20050;-67
2023/10/03 08:49:39;;;;;;;16.17;3.08;;;;;;;15.05;59.02;100570.25;4979829;28;20422;-69
2023/10/03 08:52:06;;;;;;;8.88;3.10;;;;;;;15.61;57.83;100570.16;4978257;28;20708;-69
2023/10/03 08:54:36;;;;;;;19.73;4.43;;;;;;;15.24;58.16;100571.72;4969228;28;20054;-69
2023/10/03 08:57:07;;;;;;;11.63;3.22;;;;;;;15.30;58.15;100580.06;4979839;28;20039;-67
2023/10/03 08:59:33;;;;;;;10.93;2.03;;;;;;;15.33;58.22;100595.69;4979576;28;20060;-67
2023/10/03 09:02:11;;;;;;;9.25;1.88;;;;;;;14.88;58.54;100609.94;4972608;28;21398;-69
2023/10/03 09:04:38;;;;;;;11.25;1.98;;;;;;;15.40;57.80;100617.19;4978287;28;20076;-69
2023/10/03 09:07:10;;;;;;;13.93;1.98;;;;;;;15.12;58.11;100621.53;4962424;28;20037;-66
2023/10/03 09:09:41;;;;;;;8.20;1.90;;;;;;;15.15;57.76;100607.38;4976134;28;20107;-70
2023/10/03 09:12:08;;;;;;;9.65;1.05;;;;;;;14.84;58.13;100629.50;4977663;28;20026;-69
2023/10/03 09:14:36;;;;;;;9.88;1.15;;;;;;;14.71;58.20;100651.28;4977672;28;20301;-68
2023/10/03 09:17:03;;;;;;;5.45;0.50;;;;;;;14.70;57.91;100659.25;4974957;28;20038;-70
2023/10/03 09:19:44;;;;;;;10.57;0.80;;;;;;;14.92;56.06;100671.94;4983695;28;20046;-68
2023/10/03 09:22:15;;;;;;;7.47;0.70;;;;;;;14.95;55.83;100677.03;4977522;28;20471;-68
2023/10/03 09:24:44;;;;;;;8.07;1.75;;;;;;;15.04;55.32;100683.53;4963557;28;20884;-68
2023/10/03 09:27:20;;;;;;;8.38;0.88;;;;;;;14.81;55.89;100693.66;4981581;28;20440;-68
2023/10/03 09:29:49;;;;;;;2.83;0.10;;;;;;;14.59;55.16;100694.13;4971676;28;20061;-68
2023/10/03 09:32:19;;;;;;;3.03;0.30;;;;;;;14.58;55.81;100708.19;4975577;28;20062;-69
2023/10/03 09:34:48;;;;;;;4.82;0.50;;;;;;;14.66;55.37;100716.50;4973279;28;20141;-66
2023/10/03 09:37:13;;;;;;;7.82;0.90;;;;;;;14.87;54.36;100721.41;4976461;28;20026;-67
2023/10/03 09:39:47;;;;;;;11.93;0.40;;;;;;;14.41;55.09;100726.75;4979052;28;20042;-66
2023/10/03 09:42:18;;;;;;;7.47;0.40;;;;;;;15.01;54.24;100742.44;4975341;28;20030;-70
2023/10/03 09:44:57;;;;;;;6.45;0.77;;;;;;;14.70;54.29;100744.31;4979550;28;20062;-69
2023/10/03 09:47:30;;;;;;;7.25;0.55;;;;;;;14.35;55.53;100749.81;4974065;28;20730;-69
2023/10/03 09:50:08;;;;;;;6.20;0.60;;;;;;;13.78;57.88;100765.31;4969109;28;20042;-68
2023/10/03 09:52:37;;;;;;;4.28;0.20;;;;;;;13.86;58.13;100786.75;4972405;28;20034;-66
2023/10/03 09:55:49;;;;;;;5.95;1.00;;;;;;;13.70;59.16;100789.38;4969080;28;20054;-66
2023/10/03 09:57:55;;;;;;;3.50;0.17;;;;;;;13.19;61.01;100798.25;4969729;28;20042;-66
2023/10/03 10:01:11;;;;;;;2.20;0.60;;;;;;;13.48;60.35;100815.91;4971831;28;20690;-70
2023/10/03 10:03:13;;;;;;;1.95;0.10;;;;;;;13.40;60.13;100828.59;4976809;28;20145;-68
2023/10/03 10:06:12;;;;;;;3.40;0.68;;;;;;;12.78;61.40;100824.78;4977932;28;20073;-69
2023/10/03 10:08:47;;;;;;;1.83;0.08;;;;;;;13.11;60.67;100833.56;4987194;28;20038;-67
2023/10/03 10:11:13;;;;;;;4.85;0.32;;;;;;;13.69;58.73;100839.38;4971812;28;20026;-67
2023/10/03 10:14:09;;;;;;;1.77;0.28;;;;;;;13.16;59.66;100851.75;4971985;28;20030;-66
2023/10/03 10:17:03;;;;;;;3.00;0.10;;;;;;;12.97;60.91;100866.72;4970710;28;20053;-67
2023/10/03 10:20:09;;;;;;;1.65;0.10;;;;;;;13.27;60.13;100880.91;4973626;28;20053;-64
2023/10/03 10:22:58;;;;;;;2.15;0.65;;;;;;;13.62;57.78;100872.97;4973866;28;20062;-67
2023/10/03 10:25:31;;;;;;;3.05;0.47;;;;;;;13.57;56.63;100898.66;4969843;28;20046;-66
2023/10/03 10:28:07;;;;;;;3.45;0.10;;;;;;;12.70;58.58;100907.31;4967501;28;20038;-69
2023/10/03 10:30:38;;;;;;;1.02;0.10;;;;;;;13.01;57.91;100911.06;4970935;28;20042;-65
2023/10/03 10:33:16;;;;;;;2.65;0.35;;;;;;;13.02;58.14;100910.13;4976141;28;20026;-64
2023/10/03 10:35:55;;;;;;;1.67;0.20;;;;;;;13.58;56.42;100918.72;4969791;28;20053;-69
2023/10/03 10:38:52;;;;;;;2.72;0.00;;;;;;;13.50;56.36;100934.84;4986552;28;20023;-68
2023/10/03 10:41:37;;;;;;;2.35;0.28;;;;;;;13.84;55.90;100938.38;4974086;28;20074;-66
2023/10/03 10:44:08;;;;;;;6.20;0.40;;;;;;;13.65;55.81;100942.88;4967074;28;20046;-68
2023/10/03 10:46:38;;;;;;;3.58;0.10;;;;;;;13.81;55.56;100953.44;4979763;28;20048;-67
2023/10/03 10:49:06;;;;;;;6.70;0.20;;;;;;;14.13;54.66;100960.47;4967715;28;20770;-67
2023/10/03 10:51:38;;;;;;;2.13;0.30;;;;;;;13.82;55.04;100957.78;4981103;28;20091;-68
2023/10/03 10:54:04;;;;;;;4.22;0.40;;;;;;;13.83;55.25;100972.59;4964039;28;20042;-66
2023/10/03 10:56:32;;;;;;;1.30;0.10;;;;;;;13.81;53.91;100977.94;4962222;28;20111;-66
2023/10/03 10:59:04;;;;;;;2.90;0.30;;;;;;;14.09;53.70;100979.94;4949159;28;20469;-67
2023/10/03 11:02:16;;;;;;;2.13;0.10;;;;;;;14.10;53.17;100991.34;4949983;28;20054;-68
2023/10/03 11:05:30;;;;;;;6.15;0.20;;;;;;;14.01;53.74;100987.41;4927695;28;20952;-68
2023/10/03 11:08:00;;;;;;;2.70;0.10;;;;;;;13.71;54.52;100985.44;4946244;28;20031;-67
2023/10/03 11:11:39;;;;;;;4.53;0.75;;;;;;;13.91;54.42;100992.28;4920755;28;20695;-68
2023/10/03 11:14:33;;;;;;;3.42;0.10;;;;;;;14.25;53.99;101006.25;4929092;28;20068;-67
2023/10/03 11:18:00;;;;;;;3.25;0.13;;;;;;;14.43;52.60;101011.50;4951384;28;20044;-67
2023/10/03 11:20:36;;;;;;;4.30;0.77;;;;;;;13.70;53.93;101028.41;4943205;28;20164;-67
2023/10/03 11:24:09;;;;;;;2.58;0.30;;;;;;;13.47;54.70;101049.66;4956066;28;20046;-67
2023/10/03 11:27:21;;;;;;;5.05;0.20;;;;;;;13.23;55.44;101036.00;4971117;28;20072;-68
2023/10/03 11:34:02;;;;;;;;;;;;;;;;;;;;;
2023/10/03 11:37:07;;;;;;;;;;;;;;;;;;;;;
2023/10/03 11:40:07;;;;;;;;;;;;;;;13.10;55.89;101051.47;4958409;28;20054;-67
2023/10/03 11:43:05;;;;;;;2.47;0.20;;;;;;;13.57;54.61;101060.63;4963995;28;20232;-67
2023/10/03 11:49:46;;;;;;;2.13;0.10;;;;;;;12.96;53.83;101067.00;4959170;28;20567;-69
2023/10/03 11:52:54;;;;;;;3.30;0.20;;;;;;;13.25;52.61;101070.84;4976307;28;20035;-67